sensor_id;sensor_type;location;lat;lon;timestamp;P1;durP1;ratioP1;P2;durP2;ratioP2
21206;SDS011;10761;48.532;8.026;2023-04-15T00:02:20;7.05;;;2.20;;
21206;SDS011;10761;48.532;8.026;2023-04-15T00:04:47;6.50;;;2.90;;
21206;SDS011;10761;48.532;8.026;2023-04-15T00:07:13;7.50;;;2.22;;
21206;SDS011;10761;48.532;8.026;2023-04-15T00:09:40;4.85;;;2.53;;
21206;SDS011;10761;48.532;8.026;2023-04-15T00:12:06;5.45;;;2.80;;
21206;SDS011;10761;48.532;8.026;2023-04-15T00:14:33;5.50;;;2.53;;
21206;SDS011;10761;48.532;8.026;2023-04-15T00:17:00;4.90;;;2.83;;
21206;SDS011;10761;48.532;8.026;2023-04-15T00:19:26;8.85;;;3.03;;
21206;SDS011;10761;48.532;8.026;2023-04-15T00:21:51;7.78;;;2.75;;
21206;SDS011;10761;48.532;8.026;2023-04-15T00:24:17;4.72;;;2.20;;
21206;SDS011;10761;48.532;8.026;2023-04-15T00:26:43;5.57;;;2.63;;
21206;SDS011;10761;48.532;8.026;2023-04-15T00:29:09;3.67;;;2.40;;
21206;SDS011;10761;48.532;8.026;2023-04-15T00:31:34;6.00;;;2.50;;
21206;SDS011;10761;48.532;8.026;2023-04-15T00:34:00;6.85;;;2.95;;
21206;SDS011;10761;48.532;8.026;2023-04-15T00:36:26;7.18;;;2.60;;
21206;SDS011;10761;48.532;8.026;2023-04-15T00:38:52;6.50;;;2.30;;
21206;SDS011;10761;48.532;8.026;2023-04-15T00:41:17;6.43;;;2.50;;
21206;SDS011;10761;48.532;8.026;2023-04-15T00:43:43;3.50;;;1.88;;
21206;SDS011;10761;48.532;8.026;2023-04-15T00:46:09;5.72;;;2.28;;
21206;SDS011;10761;48.532;8.026;2023-04-15T00:48:38;5.63;;;2.60;;
21206;SDS011;10761;48.532;8.026;2023-04-15T00:51:04;6.70;;;2.90;;
21206;SDS011;10761;48.532;8.026;2023-04-15T00:53:31;6.10;;;3.50;;
21206;SDS011;10761;48.532;8.026;2023-04-15T00:55:57;5.63;;;2.67;;
21206;SDS011;10761;48.532;8.026;2023-04-15T00:58:22;7.72;;;2.70;;
21206;SDS011;10761;48.532;8.026;2023-04-15T01:00:49;8.25;;;2.80;;
21206;SDS011;10761;48.532;8.026;2023-04-15T01:03:18;6.55;;;3.35;;
21206;SDS011;10761;48.532;8.026;2023-04-15T01:05:44;7.32;;;2.88;;
21206;SDS011;10761;48.532;8.026;2023-04-15T01:08:10;5.18;;;2.60;;
21206;SDS011;10761;48.532;8.026;2023-04-15T01:10:36;4.18;;;2.10;;
21206;SDS011;10761;48.532;8.026;2023-04-15T01:13:02;5.53;;;1.70;;
21206;SDS011;10761;48.532;8.026;2023-04-15T01:15:28;2.63;;;1.48;;
21206;SDS011;10761;48.532;8.026;2023-04-15T01:17:54;4.90;;;1.48;;
21206;SDS011;10761;48.532;8.026;2023-04-15T01:20:22;3.60;;;1.58;;
21206;SDS011;10761;48.532;8.026;2023-04-15T01:22:48;4.18;;;1.40;;
21206;SDS011;10761;48.532;8.026;2023-04-15T01:25:18;5.55;;;1.50;;
21206;SDS011;10761;48.532;8.026;2023-04-15T01:27:51;5.57;;;1.55;;
21206;SDS011;10761;48.532;8.026;2023-04-15T01:30:16;4.78;;;1.65;;
21206;SDS011;10761;48.532;8.026;2023-04-15T01:32:42;6.93;;;1.73;;
21206;SDS011;10761;48.532;8.026;2023-04-15T01:35:08;2.58;;;1.38;;
21206;SDS011;10761;48.532;8.026;2023-04-15T01:37:33;3.80;;;1.65;;
21206;SDS011;10761;48.532;8.026;2023-04-15T01:40:00;7.25;;;2.10;;
21206;SDS011;10761;48.532;8.026;2023-04-15T01:42:27;6.10;;;2.47;;
21206;SDS011;10761;48.532;8.026;2023-04-15T01:44:53;4.65;;;2.15;;
21206;SDS011;10761;48.532;8.026;2023-04-15T01:47:18;2.05;;;1.27;;
21206;SDS011;10761;48.532;8.026;2023-04-15T01:49:44;4.40;;;1.40;;
21206;SDS011;10761;48.532;8.026;2023-04-15T01:52:10;5.22;;;1.50;;
21206;SDS011;10761;48.532;8.026;2023-04-15T01:54:36;4.50;;;1.88;;
21206;SDS011;10761;48.532;8.026;2023-04-15T01:57:02;5.13;;;1.42;;
21206;SDS011;10761;48.532;8.026;2023-04-15T01:59:27;4.90;;;1.30;;
21206;SDS011;10761;48.532;8.026;2023-04-15T02:01:55;14.32;;;9.13;;
21206;SDS011;10761;48.532;8.026;2023-04-15T02:04:21;7.05;;;2.80;;
21206;SDS011;10761;48.532;8.026;2023-04-15T02:06:47;2.72;;;1.80;;
21206;SDS011;10761;48.532;8.026;2023-04-15T02:09:12;7.55;;;2.15;;
21206;SDS011;10761;48.532;8.026;2023-04-15T02:11:38;3.15;;;1.40;;
21206;SDS011;10761;48.532;8.026;2023-04-15T02:14:03;4.38;;;1.70;;
21206;SDS011;10761;48.532;8.026;2023-04-15T02:16:30;5.07;;;1.50;;
21206;SDS011;10761;48.532;8.026;2023-04-15T02:18:56;5.68;;;1.73;;
21206;SDS011;10761;48.532;8.026;2023-04-15T02:21:24;3.15;;;1.50;;
21206;SDS011;10761;48.532;8.026;2023-04-15T02:23:50;2.75;;;1.60;;
21206;SDS011;10761;48.532;8.026;2023-04-15T02:26:17;4.15;;;1.52;;
21206;SDS011;10761;48.532;8.026;2023-04-15T02:28:43;3.17;;;1.60;;
21206;SDS011;10761;48.532;8.026;2023-04-15T02:31:09;5.40;;;1.85;;
21206;SDS011;10761;48.532;8.026;2023-04-15T02:33:34;6.57;;;1.58;;
21206;SDS011;10761;48.532;8.026;2023-04-15T02:36:01;4.25;;;1.40;;
21206;SDS011;10761;48.532;8.026;2023-04-15T02:38:27;9.32;;;4.53;;
21206;SDS011;10761;48.532;8.026;2023-04-15T02:40:53;9.45;;;4.47;;
21206;SDS011;10761;48.532;8.026;2023-04-15T02:43:18;10.93;;;4.35;;
21206;SDS011;10761;48.532;8.026;2023-04-15T02:45:44;6.07;;;2.00;;
21206;SDS011;10761;48.532;8.026;2023-04-15T02:48:11;6.00;;;2.83;;
21206;SDS011;10761;48.532;8.026;2023-04-15T02:50:37;4.15;;;1.50;;
21206;SDS011;10761;48.532;8.026;2023-04-15T02:53:05;5.82;;;1.70;;
21206;SDS011;10761;48.532;8.026;2023-04-15T02:55:31;4.72;;;1.80;;
21206;SDS011;10761;48.532;8.026;2023-04-15T02:57:57;5.50;;;1.50;;
21206;SDS011;10761;48.532;8.026;2023-04-15T03:00:24;3.10;;;1.10;;
21206;SDS011;10761;48.532;8.026;2023-04-15T03:02:50;7.85;;;1.77;;
21206;SDS011;10761;48.532;8.026;2023-04-15T03:05:20;4.63;;;1.98;;
21206;SDS011;10761;48.532;8.026;2023-04-15T03:07:49;5.25;;;2.60;;
21206;SDS011;10761;48.532;8.026;2023-04-15T03:10:15;4.80;;;3.30;;
21206;SDS011;10761;48.532;8.026;2023-04-15T03:12:41;6.43;;;3.42;;
21206;SDS011;10761;48.532;8.026;2023-04-15T03:15:07;4.35;;;2.00;;
21206;SDS011;10761;48.532;8.026;2023-04-15T03:17:33;4.78;;;2.00;;
21206;SDS011;10761;48.532;8.026;2023-04-15T03:20:02;6.25;;;2.75;;
21206;SDS011;10761;48.532;8.026;2023-04-15T03:22:30;6.10;;;2.63;;
21206;SDS011;10761;48.532;8.026;2023-04-15T03:24:56;5.78;;;2.20;;
21206;SDS011;10761;48.532;8.026;2023-04-15T03:27:21;3.63;;;1.55;;
21206;SDS011;10761;48.532;8.026;2023-04-15T03:29:47;6.47;;;1.50;;
21206;SDS011;10761;48.532;8.026;2023-04-15T03:32:13;3.33;;;1.42;;
21206;SDS011;10761;48.532;8.026;2023-04-15T03:34:39;7.35;;;2.88;;
21206;SDS011;10761;48.532;8.026;2023-04-15T03:37:05;3.60;;;2.20;;
21206;SDS011;10761;48.532;8.026;2023-04-15T03:39:31;4.53;;;1.73;;
21206;SDS011;10761;48.532;8.026;2023-04-15T03:41:57;4.40;;;1.70;;
21206;SDS011;10761;48.532;8.026;2023-04-15T03:44:23;6.00;;;2.00;;
21206;SDS011;10761;48.532;8.026;2023-04-15T03:46:50;5.13;;;1.73;;
21206;SDS011;10761;48.532;8.026;2023-04-15T03:49:16;2.40;;;1.20;;
21206;SDS011;10761;48.532;8.026;2023-04-15T03:51:43;3.28;;;1.65;;
21206;SDS011;10761;48.532;8.026;2023-04-15T03:54:09;4.15;;;1.70;;
21206;SDS011;10761;48.532;8.026;2023-04-15T03:56:35;4.57;;;1.55;;
21206;SDS011;10761;48.532;8.026;2023-04-15T03:59:01;2.95;;;1.40;;
21206;SDS011;10761;48.532;8.026;2023-04-15T04:01:26;6.78;;;1.38;;
21206;SDS011;10761;48.532;8.026;2023-04-15T04:03:52;3.92;;;1.40;;
21206;SDS011;10761;48.532;8.026;2023-04-15T04:06:17;3.25;;;1.48;;
21206;SDS011;10761;48.532;8.026;2023-04-15T04:08:43;3.70;;;1.80;;
21206;SDS011;10761;48.532;8.026;2023-04-15T04:11:09;6.30;;;1.38;;
21206;SDS011;10761;48.532;8.026;2023-04-15T04:13:34;3.58;;;1.60;;
21206;SDS011;10761;48.532;8.026;2023-04-15T04:16:00;3.50;;;1.50;;
21206;SDS011;10761;48.532;8.026;2023-04-15T04:18:26;4.40;;;1.60;;
21206;SDS011;10761;48.532;8.026;2023-04-15T04:20:52;4.07;;;1.70;;
21206;SDS011;10761;48.532;8.026;2023-04-15T04:23:17;3.63;;;1.60;;
21206;SDS011;10761;48.532;8.026;2023-04-15T04:25:43;2.90;;;1.40;;
21206;SDS011;10761;48.532;8.026;2023-04-15T04:28:09;8.57;;;1.92;;
21206;SDS011;10761;48.532;8.026;2023-04-15T04:30:35;5.35;;;1.60;;
21206;SDS011;10761;48.532;8.026;2023-04-15T04:33:01;4.18;;;1.77;;
21206;SDS011;10761;48.532;8.026;2023-04-15T04:35:26;4.75;;;1.67;;
21206;SDS011;10761;48.532;8.026;2023-04-15T04:37:52;7.05;;;3.60;;
21206;SDS011;10761;48.532;8.026;2023-04-15T04:40:18;9.25;;;4.22;;
21206;SDS011;10761;48.532;8.026;2023-04-15T04:42:43;6.03;;;2.90;;
21206;SDS011;10761;48.532;8.026;2023-04-15T04:45:09;4.18;;;2.25;;
21206;SDS011;10761;48.532;8.026;2023-04-15T04:47:35;5.78;;;2.08;;
21206;SDS011;10761;48.532;8.026;2023-04-15T04:50:00;4.55;;;1.90;;
21206;SDS011;10761;48.532;8.026;2023-04-15T04:52:26;4.15;;;2.47;;
21206;SDS011;10761;48.532;8.026;2023-04-15T04:54:52;6.30;;;2.30;;
21206;SDS011;10761;48.532;8.026;2023-04-15T04:57:17;5.47;;;2.17;;
21206;SDS011;10761;48.532;8.026;2023-04-15T04:59:43;3.58;;;2.10;;
21206;SDS011;10761;48.532;8.026;2023-04-15T05:02:08;4.85;;;2.08;;
21206;SDS011;10761;48.532;8.026;2023-04-15T05:04:34;5.20;;;2.05;;
21206;SDS011;10761;48.532;8.026;2023-04-15T05:07:00;4.05;;;2.45;;
21206;SDS011;10761;48.532;8.026;2023-04-15T05:09:26;6.03;;;2.00;;
21206;SDS011;10761;48.532;8.026;2023-04-15T05:11:52;4.45;;;2.20;;
21206;SDS011;10761;48.532;8.026;2023-04-15T05:14:17;6.22;;;2.35;;
21206;SDS011;10761;48.532;8.026;2023-04-15T05:16:43;4.25;;;2.50;;
21206;SDS011;10761;48.532;8.026;2023-04-15T05:19:08;6.07;;;2.40;;
21206;SDS011;10761;48.532;8.026;2023-04-15T05:21:34;3.45;;;1.85;;
21206;SDS011;10761;48.532;8.026;2023-04-15T05:24:00;4.10;;;1.80;;
21206;SDS011;10761;48.532;8.026;2023-04-15T05:26:25;4.75;;;1.73;;
21206;SDS011;10761;48.532;8.026;2023-04-15T05:28:51;3.70;;;1.55;;
21206;SDS011;10761;48.532;8.026;2023-04-15T05:31:17;2.70;;;1.63;;
21206;SDS011;10761;48.532;8.026;2023-04-15T05:33:42;7.13;;;2.50;;
21206;SDS011;10761;48.532;8.026;2023-04-15T05:36:08;6.05;;;2.20;;
21206;SDS011;10761;48.532;8.026;2023-04-15T05:38:33;5.35;;;2.15;;
21206;SDS011;10761;48.532;8.026;2023-04-15T05:40:59;4.72;;;1.80;;
21206;SDS011;10761;48.532;8.026;2023-04-15T05:43:25;3.78;;;1.60;;
21206;SDS011;10761;48.532;8.026;2023-04-15T05:45:51;5.00;;;2.00;;
21206;SDS011;10761;48.532;8.026;2023-04-15T05:48:16;3.38;;;1.70;;
21206;SDS011;10761;48.532;8.026;2023-04-15T05:50:42;4.60;;;1.75;;
21206;SDS011;10761;48.532;8.026;2023-04-15T05:53:07;3.60;;;1.80;;
21206;SDS011;10761;48.532;8.026;2023-04-15T05:55:33;4.55;;;2.05;;
21206;SDS011;10761;48.532;8.026;2023-04-15T05:57:59;6.85;;;2.50;;
21206;SDS011;10761;48.532;8.026;2023-04-15T06:00:25;6.55;;;3.00;;
21206;SDS011;10761;48.532;8.026;2023-04-15T06:02:51;3.33;;;2.15;;
21206;SDS011;10761;48.532;8.026;2023-04-15T06:05:17;3.78;;;2.30;;
21206;SDS011;10761;48.532;8.026;2023-04-15T06:07:43;6.15;;;2.72;;
21206;SDS011;10761;48.532;8.026;2023-04-15T06:10:08;3.90;;;2.40;;
21206;SDS011;10761;48.532;8.026;2023-04-15T06:12:34;6.43;;;2.38;;
21206;SDS011;10761;48.532;8.026;2023-04-15T06:15:00;5.82;;;2.20;;
21206;SDS011;10761;48.532;8.026;2023-04-15T06:17:26;5.22;;;2.80;;
21206;SDS011;10761;48.532;8.026;2023-04-15T06:19:52;6.03;;;3.00;;
21206;SDS011;10761;48.532;8.026;2023-04-15T06:22:21;5.28;;;2.80;;
21206;SDS011;10761;48.532;8.026;2023-04-15T06:24:47;5.18;;;2.25;;
21206;SDS011;10761;48.532;8.026;2023-04-15T06:27:14;5.50;;;2.35;;
21206;SDS011;10761;48.532;8.026;2023-04-15T06:29:40;9.68;;;2.50;;
21206;SDS011;10761;48.532;8.026;2023-04-15T06:32:06;6.57;;;2.50;;
21206;SDS011;10761;48.532;8.026;2023-04-15T06:34:32;4.53;;;2.15;;
21206;SDS011;10761;48.532;8.026;2023-04-15T06:36:57;4.53;;;2.50;;
21206;SDS011;10761;48.532;8.026;2023-04-15T06:39:23;4.50;;;2.80;;
21206;SDS011;10761;48.532;8.026;2023-04-15T06:41:49;6.18;;;3.53;;
21206;SDS011;10761;48.532;8.026;2023-04-15T06:44:14;6.60;;;4.45;;
21206;SDS011;10761;48.532;8.026;2023-04-15T06:46:40;7.75;;;4.90;;
21206;SDS011;10761;48.532;8.026;2023-04-15T06:49:06;10.38;;;7.05;;
21206;SDS011;10761;48.532;8.026;2023-04-15T06:51:33;15.23;;;7.18;;
21206;SDS011;10761;48.532;8.026;2023-04-15T06:53:59;13.95;;;7.35;;
21206;SDS011;10761;48.532;8.026;2023-04-15T06:56:26;10.57;;;7.05;;
21206;SDS011;10761;48.532;8.026;2023-04-15T06:58:52;26.30;;;12.10;;
21206;SDS011;10761;48.532;8.026;2023-04-15T07:01:17;24.77;;;12.32;;
21206;SDS011;10761;48.532;8.026;2023-04-15T07:03:43;28.02;;;16.38;;
21206;SDS011;10761;48.532;8.026;2023-04-15T07:06:10;55.85;;;29.30;;
21206;SDS011;10761;48.532;8.026;2023-04-15T07:08:35;49.00;;;26.85;;
21206;SDS011;10761;48.532;8.026;2023-04-15T07:11:01;40.17;;;23.30;;
21206;SDS011;10761;48.532;8.026;2023-04-15T07:13:29;30.15;;;17.20;;
21206;SDS011;10761;48.532;8.026;2023-04-15T07:15:55;28.73;;;15.52;;
21206;SDS011;10761;48.532;8.026;2023-04-15T07:18:21;25.73;;;13.32;;
21206;SDS011;10761;48.532;8.026;2023-04-15T07:20:46;15.77;;;9.02;;
21206;SDS011;10761;48.532;8.026;2023-04-15T07:23:12;12.68;;;6.40;;
21206;SDS011;10761;48.532;8.026;2023-04-15T07:25:38;9.45;;;4.95;;
21206;SDS011;10761;48.532;8.026;2023-04-15T07:28:03;8.63;;;4.60;;
21206;SDS011;10761;48.532;8.026;2023-04-15T07:30:29;8.52;;;4.32;;
21206;SDS011;10761;48.532;8.026;2023-04-15T07:32:56;9.45;;;3.55;;
21206;SDS011;10761;48.532;8.026;2023-04-15T07:35:23;5.45;;;3.50;;
21206;SDS011;10761;48.532;8.026;2023-04-15T07:37:50;9.18;;;5.10;;
21206;SDS011;10761;48.532;8.026;2023-04-15T07:40:16;8.90;;;5.43;;
21206;SDS011;10761;48.532;8.026;2023-04-15T07:42:42;12.38;;;4.90;;
21206;SDS011;10761;48.532;8.026;2023-04-15T07:45:08;14.32;;;7.78;;
21206;SDS011;10761;48.532;8.026;2023-04-15T07:47:34;12.38;;;7.00;;
21206;SDS011;10761;48.532;8.026;2023-04-15T07:50:00;15.88;;;8.18;;
21206;SDS011;10761;48.532;8.026;2023-04-15T07:52:26;15.50;;;7.97;;
21206;SDS011;10761;48.532;8.026;2023-04-15T07:54:52;10.55;;;6.57;;
21206;SDS011;10761;48.532;8.026;2023-04-15T07:57:17;13.38;;;7.43;;
21206;SDS011;10761;48.532;8.026;2023-04-15T07:59:43;10.32;;;6.13;;
21206;SDS011;10761;48.532;8.026;2023-04-15T08:02:09;10.25;;;6.38;;
21206;SDS011;10761;48.532;8.026;2023-04-15T08:04:35;10.38;;;6.47;;
21206;SDS011;10761;48.532;8.026;2023-04-15T08:07:01;9.18;;;5.40;;
21206;SDS011;10761;48.532;8.026;2023-04-15T08:09:28;7.05;;;3.78;;
21206;SDS011;10761;48.532;8.026;2023-04-15T08:11:53;7.57;;;3.00;;
21206;SDS011;10761;48.532;8.026;2023-04-15T08:14:21;7.63;;;3.53;;
21206;SDS011;10761;48.532;8.026;2023-04-15T08:16:46;11.43;;;3.42;;
21206;SDS011;10761;48.532;8.026;2023-04-15T08:19:12;7.45;;;3.40;;
21206;SDS011;10761;48.532;8.026;2023-04-15T08:21:37;8.55;;;2.88;;
21206;SDS011;10761;48.532;8.026;2023-04-15T08:24:04;7.03;;;3.13;;
21206;SDS011;10761;48.532;8.026;2023-04-15T08:26:31;5.15;;;2.78;;
21206;SDS011;10761;48.532;8.026;2023-04-15T08:28:56;6.15;;;2.92;;
21206;SDS011;10761;48.532;8.026;2023-04-15T08:31:22;9.50;;;3.17;;
21206;SDS011;10761;48.532;8.026;2023-04-15T08:33:51;5.95;;;2.92;;
21206;SDS011;10761;48.532;8.026;2023-04-15T08:36:18;6.57;;;2.70;;
21206;SDS011;10761;48.532;8.026;2023-04-15T08:38:43;4.65;;;2.55;;
21206;SDS011;10761;48.532;8.026;2023-04-15T08:41:22;5.97;;;3.17;;
21206;SDS011;10761;48.532;8.026;2023-04-15T08:43:53;7.95;;;2.83;;
21206;SDS011;10761;48.532;8.026;2023-04-15T08:46:22;5.60;;;2.65;;
21206;SDS011;10761;48.532;8.026;2023-04-15T08:48:48;6.60;;;2.40;;
21206;SDS011;10761;48.532;8.026;2023-04-15T08:51:14;6.25;;;2.30;;
21206;SDS011;10761;48.532;8.026;2023-04-15T08:53:44;4.82;;;2.00;;
21206;SDS011;10761;48.532;8.026;2023-04-15T08:56:11;4.85;;;2.00;;
21206;SDS011;10761;48.532;8.026;2023-04-15T08:58:39;3.47;;;2.00;;
21206;SDS011;10761;48.532;8.026;2023-04-15T09:01:05;7.80;;;2.00;;
21206;SDS011;10761;48.532;8.026;2023-04-15T09:03:31;10.77;;;2.03;;
21206;SDS011;10761;48.532;8.026;2023-04-15T09:05:58;2.65;;;1.60;;
21206;SDS011;10761;48.532;8.026;2023-04-15T09:08:24;6.93;;;2.05;;
21206;SDS011;10761;48.532;8.026;2023-04-15T09:10:50;7.25;;;1.58;;
21206;SDS011;10761;48.532;8.026;2023-04-15T09:13:16;4.20;;;1.40;;
21206;SDS011;10761;48.532;8.026;2023-04-15T09:15:42;5.68;;;1.60;;
21206;SDS011;10761;48.532;8.026;2023-04-15T09:18:10;6.68;;;1.88;;
21206;SDS011;10761;48.532;8.026;2023-04-15T09:20:38;4.75;;;1.85;;
21206;SDS011;10761;48.532;8.026;2023-04-15T09:23:10;2.13;;;1.85;;
21206;SDS011;10761;48.532;8.026;2023-04-15T09:25:37;5.50;;;2.50;;
21206;SDS011;10761;48.532;8.026;2023-04-15T09:28:06;8.13;;;2.35;;
21206;SDS011;10761;48.532;8.026;2023-04-15T09:30:32;6.40;;;2.20;;
21206;SDS011;10761;48.532;8.026;2023-04-15T09:32:59;7.22;;;1.95;;
21206;SDS011;10761;48.532;8.026;2023-04-15T09:35:32;3.92;;;2.00;;
21206;SDS011;10761;48.532;8.026;2023-04-15T09:38:02;4.63;;;1.73;;
21206;SDS011;10761;48.532;8.026;2023-04-15T09:40:39;3.95;;;1.90;;
21206;SDS011;10761;48.532;8.026;2023-04-15T09:43:06;3.13;;;1.80;;
21206;SDS011;10761;48.532;8.026;2023-04-15T09:45:33;3.17;;;1.73;;
21206;SDS011;10761;48.532;8.026;2023-04-15T09:50:58;6.05;;;2.40;;
21206;SDS011;10761;48.532;8.026;2023-04-15T09:53:24;5.38;;;2.17;;
21206;SDS011;10761;48.532;8.026;2023-04-15T09:55:51;3.10;;;1.70;;
21206;SDS011;10761;48.532;8.026;2023-04-15T09:58:19;4.55;;;2.35;;
21206;SDS011;10761;48.532;8.026;2023-04-15T10:00:50;7.18;;;5.05;;
21206;SDS011;10761;48.532;8.026;2023-04-15T10:03:21;5.95;;;2.63;;
21206;SDS011;10761;48.532;8.026;2023-04-15T10:05:49;4.82;;;1.80;;
21206;SDS011;10761;48.532;8.026;2023-04-15T10:08:16;4.13;;;2.00;;
21206;SDS011;10761;48.532;8.026;2023-04-15T10:10:44;3.58;;;2.08;;
21206;SDS011;10761;48.532;8.026;2023-04-15T10:13:18;3.13;;;1.63;;
21206;SDS011;10761;48.532;8.026;2023-04-15T10:15:50;3.30;;;1.77;;
21206;SDS011;10761;48.532;8.026;2023-04-15T10:18:21;4.20;;;2.05;;
21206;SDS011;10761;48.532;8.026;2023-04-15T10:20:49;3.90;;;1.70;;
21206;SDS011;10761;48.532;8.026;2023-04-15T10:23:15;4.03;;;2.17;;
21206;SDS011;10761;48.532;8.026;2023-04-15T10:25:42;5.60;;;1.92;;
21206;SDS011;10761;48.532;8.026;2023-04-15T10:28:09;3.60;;;2.00;;
21206;SDS011;10761;48.532;8.026;2023-04-15T10:30:35;4.45;;;1.98;;
21206;SDS011;10761;48.532;8.026;2023-04-15T10:33:01;4.38;;;1.70;;
21206;SDS011;10761;48.532;8.026;2023-04-15T10:35:28;3.97;;;1.80;;
21206;SDS011;10761;48.532;8.026;2023-04-15T10:37:55;2.67;;;1.60;;
21206;SDS011;10761;48.532;8.026;2023-04-15T10:40:30;4.03;;;1.60;;
21206;SDS011;10761;48.532;8.026;2023-04-15T10:42:57;3.80;;;1.42;;
21206;SDS011;10761;48.532;8.026;2023-04-15T10:45:35;2.70;;;1.25;;
21206;SDS011;10761;48.532;8.026;2023-04-15T10:48:02;4.68;;;1.88;;
21206;SDS011;10761;48.532;8.026;2023-04-15T10:50:30;3.95;;;1.90;;
21206;SDS011;10761;48.532;8.026;2023-04-15T10:52:57;2.30;;;1.75;;
21206;SDS011;10761;48.532;8.026;2023-04-15T10:55:24;3.25;;;1.88;;
21206;SDS011;10761;48.532;8.026;2023-04-15T10:57:57;4.28;;;1.65;;
21206;SDS011;10761;48.532;8.026;2023-04-15T11:00:25;5.20;;;1.80;;
21206;SDS011;10761;48.532;8.026;2023-04-15T11:02:54;4.55;;;1.70;;
21206;SDS011;10761;48.532;8.026;2023-04-15T11:05:22;3.30;;;1.63;;
21206;SDS011;10761;48.532;8.026;2023-04-15T11:08:03;3.55;;;1.38;;
21206;SDS011;10761;48.532;8.026;2023-04-15T11:13:01;3.47;;;1.80;;
21206;SDS011;10761;48.532;8.026;2023-04-15T11:15:29;3.60;;;1.80;;
21206;SDS011;10761;48.532;8.026;2023-04-15T11:20:39;2.75;;;1.52;;
21206;SDS011;10761;48.532;8.026;2023-04-15T11:23:07;3.65;;;1.70;;
21206;SDS011;10761;48.532;8.026;2023-04-15T11:25:33;6.30;;;1.60;;
21206;SDS011;10761;48.532;8.026;2023-04-15T11:28:02;6.65;;;2.10;;
21206;SDS011;10761;48.532;8.026;2023-04-15T11:30:28;17.58;;;5.63;;
21206;SDS011;10761;48.532;8.026;2023-04-15T11:33:01;3.40;;;1.55;;
21206;SDS011;10761;48.532;8.026;2023-04-15T11:35:31;4.10;;;1.58;;
21206;SDS011;10761;48.532;8.026;2023-04-15T11:37:57;2.33;;;1.33;;
21206;SDS011;10761;48.532;8.026;2023-04-15T11:40:27;11.38;;;4.15;;
21206;SDS011;10761;48.532;8.026;2023-04-15T11:51:06;5.63;;;1.27;;
21206;SDS011;10761;48.532;8.026;2023-04-15T11:56:05;40.20;;;10.63;;
21206;SDS011;10761;48.532;8.026;2023-04-15T11:58:33;8.60;;;2.60;;
21206;SDS011;10761;48.532;8.026;2023-04-15T12:01:03;3.25;;;1.30;;
21206;SDS011;10761;48.532;8.026;2023-04-15T12:03:35;16.65;;;2.85;;
21206;SDS011;10761;48.532;8.026;2023-04-15T12:06:21;13.27;;;4.13;;
21206;SDS011;10761;48.532;8.026;2023-04-15T12:13:53;9.32;;;2.40;;
21206;SDS011;10761;48.532;8.026;2023-04-15T12:16:21;5.40;;;1.42;;
21206;SDS011;10761;48.532;8.026;2023-04-15T12:18:53;3.33;;;1.25;;
21206;SDS011;10761;48.532;8.026;2023-04-15T12:21:20;12.18;;;1.90;;
21206;SDS011;10761;48.532;8.026;2023-04-15T12:23:50;5.72;;;1.40;;
21206;SDS011;10761;48.532;8.026;2023-04-15T12:26:17;3.95;;;1.33;;
21206;SDS011;10761;48.532;8.026;2023-04-15T12:28:54;4.97;;;1.17;;
21206;SDS011;10761;48.532;8.026;2023-04-15T12:31:21;6.63;;;1.60;;
21206;SDS011;10761;48.532;8.026;2023-04-15T12:33:47;4.07;;;1.40;;
21206;SDS011;10761;48.532;8.026;2023-04-15T12:36:13;7.47;;;1.30;;
21206;SDS011;10761;48.532;8.026;2023-04-15T12:38:40;4.25;;;1.60;;
21206;SDS011;10761;48.532;8.026;2023-04-15T12:41:06;5.47;;;1.50;;
21206;SDS011;10761;48.532;8.026;2023-04-15T12:43:31;6.13;;;1.30;;
21206;SDS011;10761;48.532;8.026;2023-04-15T12:45:57;4.80;;;1.17;;
21206;SDS011;10761;48.532;8.026;2023-04-15T12:48:22;3.20;;;0.90;;
21206;SDS011;10761;48.532;8.026;2023-04-15T12:50:48;4.30;;;1.00;;
21206;SDS011;10761;48.532;8.026;2023-04-15T12:53:13;2.85;;;0.80;;
21206;SDS011;10761;48.532;8.026;2023-04-15T12:55:39;4.72;;;1.10;;
21206;SDS011;10761;48.532;8.026;2023-04-15T12:58:05;5.60;;;1.30;;
21206;SDS011;10761;48.532;8.026;2023-04-15T13:00:32;4.07;;;1.10;;
21206;SDS011;10761;48.532;8.026;2023-04-15T13:02:58;3.60;;;1.20;;
21206;SDS011;10761;48.532;8.026;2023-04-15T13:05:24;6.80;;;1.20;;
21206;SDS011;10761;48.532;8.026;2023-04-15T13:07:50;4.00;;;1.10;;
21206;SDS011;10761;48.532;8.026;2023-04-15T13:10:16;5.47;;;1.00;;
21206;SDS011;10761;48.532;8.026;2023-04-15T13:12:41;3.08;;;1.38;;
21206;SDS011;10761;48.532;8.026;2023-04-15T13:15:07;5.40;;;1.17;;
21206;SDS011;10761;48.532;8.026;2023-04-15T13:17:35;4.63;;;1.30;;
21206;SDS011;10761;48.532;8.026;2023-04-15T13:20:00;3.65;;;1.33;;
21206;SDS011;10761;48.532;8.026;2023-04-15T13:22:26;6.85;;;1.75;;
21206;SDS011;10761;48.532;8.026;2023-04-15T13:24:52;6.88;;;1.50;;
21206;SDS011;10761;48.532;8.026;2023-04-15T13:27:17;5.97;;;1.45;;
21206;SDS011;10761;48.532;8.026;2023-04-15T13:29:43;5.85;;;1.40;;
21206;SDS011;10761;48.532;8.026;2023-04-15T13:32:08;5.40;;;1.73;;
21206;SDS011;10761;48.532;8.026;2023-04-15T13:34:34;4.18;;;1.52;;
21206;SDS011;10761;48.532;8.026;2023-04-15T13:37:05;5.68;;;1.55;;
21206;SDS011;10761;48.532;8.026;2023-04-15T13:39:33;8.30;;;1.85;;
21206;SDS011;10761;48.532;8.026;2023-04-15T13:41:59;6.43;;;1.50;;
21206;SDS011;10761;48.532;8.026;2023-04-15T13:44:25;4.43;;;1.50;;
21206;SDS011;10761;48.532;8.026;2023-04-15T13:46:51;3.85;;;1.38;;
21206;SDS011;10761;48.532;8.026;2023-04-15T13:49:16;3.92;;;1.88;;
21206;SDS011;10761;48.532;8.026;2023-04-15T13:51:42;6.63;;;1.45;;
21206;SDS011;10761;48.532;8.026;2023-04-15T13:54:07;4.00;;;1.77;;
21206;SDS011;10761;48.532;8.026;2023-04-15T13:56:33;5.47;;;1.83;;
21206;SDS011;10761;48.532;8.026;2023-04-15T13:58:59;7.40;;;2.30;;
21206;SDS011;10761;48.532;8.026;2023-04-15T14:01:26;5.40;;;2.20;;
21206;SDS011;10761;48.532;8.026;2023-04-15T14:03:52;4.75;;;1.98;;
21206;SDS011;10761;48.532;8.026;2023-04-15T14:06:17;9.38;;;2.03;;
21206;SDS011;10761;48.532;8.026;2023-04-15T14:08:43;6.22;;;2.00;;
21206;SDS011;10761;48.532;8.026;2023-04-15T14:11:09;5.20;;;1.60;;
21206;SDS011;10761;48.532;8.026;2023-04-15T14:13:36;4.63;;;1.88;;
21206;SDS011;10761;48.532;8.026;2023-04-15T14:16:01;7.53;;;2.22;;
21206;SDS011;10761;48.532;8.026;2023-04-15T14:18:27;9.18;;;2.13;;
21206;SDS011;10761;48.532;8.026;2023-04-15T14:20:54;5.07;;;2.28;;
21206;SDS011;10761;48.532;8.026;2023-04-15T14:23:20;8.90;;;2.92;;
21206;SDS011;10761;48.532;8.026;2023-04-15T14:25:46;7.07;;;3.85;;
21206;SDS011;10761;48.532;8.026;2023-04-15T14:28:11;6.00;;;2.83;;
21206;SDS011;10761;48.532;8.026;2023-04-15T14:30:37;6.35;;;2.20;;
21206;SDS011;10761;48.532;8.026;2023-04-15T14:33:02;4.90;;;2.13;;
21206;SDS011;10761;48.532;8.026;2023-04-15T14:35:28;7.00;;;3.13;;
21206;SDS011;10761;48.532;8.026;2023-04-15T14:37:54;7.85;;;2.30;;
21206;SDS011;10761;48.532;8.026;2023-04-15T14:40:20;9.15;;;3.10;;
21206;SDS011;10761;48.532;8.026;2023-04-15T14:42:46;7.32;;;3.20;;
21206;SDS011;10761;48.532;8.026;2023-04-15T14:45:12;6.47;;;2.38;;
21206;SDS011;10761;48.532;8.026;2023-04-15T14:47:38;7.85;;;2.50;;
21206;SDS011;10761;48.532;8.026;2023-04-15T14:50:03;13.35;;;3.28;;
21206;SDS011;10761;48.532;8.026;2023-04-15T14:52:30;22.10;;;4.13;;
21206;SDS011;10761;48.532;8.026;2023-04-15T14:55:02;22.45;;;4.05;;
21206;SDS011;10761;48.532;8.026;2023-04-15T14:57:34;18.05;;;3.25;;
21206;SDS011;10761;48.532;8.026;2023-04-15T15:00:02;4.80;;;2.15;;
21206;SDS011;10761;48.532;8.026;2023-04-15T15:02:28;15.63;;;3.20;;
21206;SDS011;10761;48.532;8.026;2023-04-15T15:04:54;7.45;;;2.47;;
21206;SDS011;10761;48.532;8.026;2023-04-15T15:07:21;4.43;;;2.20;;